Pineville, MO (64856)

5:18 PM CST on February 10, 2016 (GMT -0600)
Brush Creek | | Change Station
CLOSE
Current Station
Personal Weather Station
Location: Noel, MO
Elevation: 1056 ft
Nearby Weather Stations

Elev 1056 ft 36.51 °N, 94.34 °W | Updated 11 seconds ago

Clear
Clear
52.0 °F
Feels Like 52.0 °F
N
0.0
Wind Variable Wind from East
Gusts 0.0 mph

Today
High -- | Low -- °F
--% Chance of Precip.
Yesterday
High -- | Low -- °F
Precip. -- in
Pressure 29.97 in
Visibility 7.0 miles
Clouds Clear
Dew Point 22 °F
Humidity 30%
Rainfall 0.00 in
Snow Depth Not available.
7:11 AM 5:52 PM
Waxing Crescent, 8% visible
METAR KGMJ 102315Z AUTO 21005KT 7SM CLR 13/M03 A2997 RMK AO2
Pressure 29.97 in
Visibility 7.0 miles
Clouds Clear
Dew Point 22 °F
Humidity 30%
Rainfall 0.00 in
Snow Depth Not available.
7:11 AM 5:52 PM
Waxing Crescent, 8% visible
METAR KGMJ 102315Z AUTO 21005KT 7SM CLR 13/M03 A2997 RMK AO2

10-Day Weather Forecast

Almanac

Astronomy

Feb. 10, 2016 Rise Set
Actual Time
Civil Twilight
Nautical Twilight
Astronomical Twilight
Moon
Length of Visible Light
Length of Day
Tomorrow will be .
, % of the Moon is Illuminated

Today's Extremes

State Highs State Lows

Community

WunderPhotos

Upload Photos

1,891,933 photos uploaded!

WunderBlog® & News

Nearby

Air Quality

  Air Quality AQ Index Pollutant
Not available.

Snow Depth

Station Depth Elevation

Earthquake Activity

City Distance Mag. Time & Date
Minimum magnitude displayed is 2.5.

Coastal Water Temperatures

Place Temperature

Stations

Nearby Weather Stations

Station Location Temp. Windchill Dew Point Humidity Wind Precip. Elev Updated Type
                   

Watches & Warnings

There are currently no watches in effect.